Time;durP1;ratioP1;P1;durP2;ratioP2;P2;SDS_P1;SDS_P2;PMS_P1;PMS_P2;Temp;Humidity;BMP_temperature;BMP_pressure;BME280_temperature;BME280_humidity;BME280_pressure;Samples;Min_cycle;Max_cycle;Signal;HPM_P1;HPM_P2
2023/01/08 00:01:44;;;;;;;6.40;5.87;;;;;;;8.37;50.17;94968.03;2617536;47;20157;-80
2023/01/08 00:04:13;;;;;;;6.20;5.70;;;;;;;9.02;51.37;94936.31;2617210;47;20157;-80
2023/01/08 00:06:41;;;;;;;6.87;6.10;;;;;;;10.06;47.64;94972.34;2617394;47;20236;-79
2023/01/08 00:09:11;;;;;;;7.40;6.83;;;;;;;10.31;46.24;94952.09;2617180;49;20219;-80
2023/01/08 00:11:41;;;;;;;7.70;6.40;;;;;;;10.68;46.61;94952.09;2617430;46;20255;-79
2023/01/08 00:14:10;;;;;;;10.13;5.97;;;;;;;11.06;47.24;94962.63;2617562;54;20175;-81
2023/01/08 00:16:41;;;;;;;7.43;6.73;;;;;;;11.05;47.30;94925.06;2617586;47;20161;-80
2023/01/08 00:19:11;;;;;;;7.47;6.80;;;;;;;11.13;42.76;94972.78;2618173;46;20187;-80
2023/01/08 00:21:39;;;;;;;15.27;6.97;;;;;;;10.13;43.77;94957.75;2617487;54;20164;-79
2023/01/08 00:24:09;;;;;;;9.27;7.47;;;;;;;8.39;47.48;94964.59;2619549;47;20165;-79
2023/01/08 00:26:37;;;;;;;11.97;7.43;;;;;;;7.13;50.49;94967.75;2618152;47;20169;-81
2023/01/08 00:29:07;;;;;;;10.03;8.97;;;;;;;6.34;52.02;94963.69;2617690;47;20176;-81
2023/01/08 00:31:36;;;;;;;9.20;4.57;;;;;;;5.54;56.19;94965.63;2617281;47;20759;-80
2023/01/08 00:34:07;;;;;;;12.93;8.57;;;;;;;5.92;55.56;94959.34;2617689;47;20335;-80
2023/01/08 00:36:36;;;;;;;7.33;6.30;;;;;;;5.38;54.93;94914.88;2617517;47;20269;-79
2023/01/08 00:39:05;;;;;;;9.00;7.40;;;;;;;5.46;55.70;94951.13;2618069;54;20173;-79
2023/01/08 00:41:33;;;;;;;6.00;5.23;;;;;;;5.07;57.05;94943.31;2618782;54;20145;-79
2023/01/08 00:44:02;;;;;;;9.53;6.87;;;;;;;5.18;56.92;94967.84;2619221;47;20207;-79
2023/01/08 00:46:31;;;;;;;11.23;6.73;;;;;;;4.59;58.61;94958.78;2620972;54;20165;-80
2023/01/08 00:49:00;;;;;;;8.30;4.83;;;;;;;4.67;58.63;94961.34;2621388;54;20141;-80
2023/01/08 00:51:31;;;;;;;6.37;4.70;;;;;;;4.51;58.85;94966.72;2621596;47;20260;-80
2023/01/08 00:53:59;;;;;;;14.50;6.77;;;;;;;4.40;59.25;94970.25;2621182;47;20217;-81
2023/01/08 00:56:28;;;;;;;5.07;2.03;;;;;;;4.52;58.89;94962.56;2618772;46;20164;-80
2023/01/08 00:58:57;;;;;;;4.43;3.63;;;;;;;4.59;58.24;94939.16;2604162;39;20600;-78
2023/01/08 01:01:27;;;;;;;5.97;4.07;;;;;;;6.58;60.18;94963.50;2617542;54;20283;-79
2023/01/08 01:03:55;;;;;;;11.50;3.57;;;;;;;7.55;55.42;94970.47;2617909;47;20176;-80
2023/01/08 01:06:24;;;;;;;7.77;5.03;;;;;;;7.32;52.38;94906.69;2617196;54;20153;-79
2023/01/08 01:08:56;;;;;;;8.10;7.27;;;;;;;8.13;51.01;94969.72;2617548;47;20169;-81
2023/01/08 01:11:27;;;;;;;6.80;5.53;;;;;;;8.23;49.60;94977.94;2617685;54;20156;-79
2023/01/08 01:13:57;;;;;;;10.47;7.87;;;;;;;9.30;53.79;94953.69;2617552;47;20247;-79
2023/01/08 01:16:26;;;;;;;6.83;6.17;;;;;;;9.66;47.37;94960.88;2617475;47;20260;-79
2023/01/08 01:18:56;;;;;;;6.77;6.00;;;;;;;10.25;49.40;94954.72;2617253;47;20259;-79
2023/01/08 01:21:28;;;;;;;10.17;6.93;;;;;;;10.04;44.55;94963.75;2617272;47;20157;-79
2023/01/08 01:24:02;;;;;;;5.47;4.97;;;;;;;10.46;49.04;94967.53;2617042;47;20185;-80
2023/01/08 01:26:31;;;;;;;9.13;7.47;;;;;;;9.53;44.04;94964.56;2618028;47;20200;-79
2023/01/08 01:29:00;;;;;;;10.73;6.27;;;;;;;9.05;50.24;94946.28;2618655;39;20566;-80
2023/01/08 01:31:31;;;;;;;9.43;7.43;;;;;;;10.21;50.50;94954.56;2618532;47;20172;-79
2023/01/08 01:34:00;;;;;;;10.13;5.50;;;;;;;10.74;49.64;94965.03;2617910;54;20339;-79
2023/01/08 01:36:29;;;;;;;6.93;5.43;;;;;;;9.71;43.11;94951.16;2617688;54;20269;-79
2023/01/08 01:39:00;;;;;;;5.20;4.70;;;;;;;7.25;48.99;94953.53;2617496;54;20151;-79
2023/01/08 01:41:32;;;;;;;7.77;5.40;;;;;;;6.15;50.90;94919.06;2617802;47;20168;-79
2023/01/08 01:44:02;;;;;;;6.03;4.23;;;;;;;5.69;52.90;94953.81;2618065;47;20184;-79
2023/01/08 01:46:38;;;;;;;9.93;4.60;;;;;;;5.02;54.27;94933.22;2619754;54;20176;-80
2023/01/08 01:49:12;;;;;;;5.43;4.97;;;;;;;5.69;55.24;94953.81;2616982;47;20184;-80
2023/01/08 01:51:45;;;;;;;17.07;5.60;;;;;;;5.32;54.61;94948.25;2617261;54;20164;-80
2023/01/08 01:54:18;;;;;;;4.70;3.17;;;;;;;4.94;56.71;94947.50;2616625;54;20157;-80
2023/01/08 01:56:48;;;;;;;7.40;5.63;;;;;;;4.92;56.84;94913.69;2617494;39;20566;-80
2023/01/08 01:59:17;;;;;;;5.63;4.33;;;;;;;4.82;57.51;94941.19;2616767;54;20180;-81
2023/01/08 02:01:47;;;;;;;7.03;6.40;;;;;;;4.55;58.12;94944.53;2616930;47;20176;-81
2023/01/08 02:04:16;;;;;;;10.67;5.00;;;;;;;4.32;58.60;94927.00;2616792;47;20172;-80
2023/01/08 02:06:50;;;;;;;2.70;2.60;;;;;;;3.90;60.28;94923.06;2617129;47;20731;-81
2023/01/08 02:09:32;;;;;;;1.90;1.90;;;;;;;4.11;59.63;94934.16;2617021;47;20320;-80
2023/01/08 02:12:19;;;;;;;1.30;1.20;;;;;;;4.37;60.02;94929.44;2617004;47;20267;-80
2023/01/08 02:14:58;;;;;;;1.50;1.50;;;;;;;4.24;60.56;94933.56;2617317;47;20161;-79
2023/01/08 02:17:36;;;;;;;2.07;1.80;;;;;;;6.19;62.04;94938.25;2617677;39;20240;-78
2023/01/08 02:20:13;;;;;;;4.63;2.70;;;;;;;7.77;53.23;94924.38;2617390;54;20291;-79
2023/01/08 02:23:11;;;;;;;4.43;3.90;;;;;;;8.64;50.01;94918.41;2617484;47;20168;-79
2023/01/08 02:26:09;;;;;;;7.17;4.80;;;;;;;9.49;50.00;94924.81;2617539;47;20169;-82
2023/01/08 02:28:42;;;;;;;4.43;3.53;;;;;;;9.95;47.22;94931.59;2617363;47;20185;-79
2023/01/08 02:31:12;;;;;;;5.17;4.30;;;;;;;10.18;46.98;94925.44;2617623;47;20219;-78
2023/01/08 02:33:41;;;;;;;5.10;4.73;;;;;;;10.41;47.70;94915.69;2618476;31;20662;-79
2023/01/08 02:36:37;;;;;;;7.63;6.33;;;;;;;9.75;43.46;94913.81;2618120;39;20666;-79
2023/01/08 02:39:31;;;;;;;4.10;3.80;;;;;;;7.94;48.67;94923.00;2617275;54;20165;-80
2023/01/08 02:42:19;;;;;;;7.63;3.97;;;;;;;7.77;49.22;94898.25;2618761;47;20165;-79
2023/01/08 02:44:57;;;;;;;5.70;5.17;;;;;;;7.45;47.78;94915.09;2619195;54;20176;-79
2023/01/08 02:47:33;;;;;;;4.73;4.43;;;;;;;7.08;51.47;94904.16;2619337;47;20171;-79
2023/01/08 02:50:13;;;;;;;6.33;4.83;;;;;;;6.55;54.18;94902.88;2619013;47;20164;-79
2023/01/08 02:52:51;;;;;;;16.80;4.53;;;;;;;7.93;51.28;94909.53;2618522;47;20164;-80
2023/01/08 02:55:24;;;;;;;3.20;2.90;;;;;;;8.50;51.20;94898.75;2618674;54;20184;-80
2023/01/08 02:57:56;;;;;;;7.63;4.63;;;;;;;7.88;50.25;94885.34;2618234;47;20272;-80
2023/01/08 03:00:25;;;;;;;4.13;3.73;;;;;;;9.28;49.62;94892.19;2618537;47;20169;-79
2023/01/08 03:03:07;;;;;;;5.83;3.57;;;;;;;9.97;48.28;94900.56;2618324;54;20224;-80
2023/01/08 03:05:36;;;;;;;5.90;4.47;;;;;;;10.38;46.49;94890.78;2618610;54;20196;-79
2023/01/08 03:08:06;;;;;;;4.60;4.20;;;;;;;10.56;47.83;94877.28;2618925;54;20179;-78
2023/01/08 03:10:36;;;;;;;9.37;4.43;;;;;;;11.14;46.57;94918.28;2618186;47;20172;-79
2023/01/08 03:13:12;;;;;;;6.60;4.93;;;;;;;9.08;42.78;94906.19;2618221;47;20195;-81
2023/01/08 03:15:47;;;;;;;3.50;3.30;;;;;;;6.65;48.20;94904.09;2618325;47;20176;-80
2023/01/08 03:18:20;;;;;;;2.77;2.60;;;;;;;5.89;50.53;94914.84;2618695;39;20657;-79
2023/01/08 03:20:51;;;;;;;4.43;1.93;;;;;;;4.98;53.16;94925.28;2617705;47;20164;-80
2023/01/08 03:23:21;;;;;;;2.67;2.47;;;;;;;4.73;56.47;94897.16;2618127;47;20176;-80
2023/01/08 03:25:50;;;;;;;2.60;2.47;;;;;;;5.13;54.86;94917.66;2617932;47;20173;-80
2023/01/08 03:28:29;;;;;;;3.50;2.80;;;;;;;3.83;56.82;94828.75;2618273;47;20169;-80
2023/01/08 03:30:59;;;;;;;3.23;2.40;;;;;;;4.20;58.42;94912.97;2618307;47;20177;-80
2023/01/08 03:33:31;;;;;;;2.20;2.20;;;;;;;5.01;57.99;94923.34;2618250;47;20793;-80
2023/01/08 03:36:05;;;;;;;2.13;2.03;;;;;;;5.32;54.38;94920.16;2617841;54;20165;-80
2023/01/08 03:38:38;;;;;;;2.33;2.23;;;;;;;4.84;56.31;94920.94;2618627;39;20572;-80
2023/01/08 03:41:15;;;;;;;2.17;2.07;;;;;;;4.17;58.53;94895.31;2617789;47;20196;-79
2023/01/08 03:43:46;;;;;;;2.47;2.33;;;;;;;4.08;59.07;94912.97;2618363;54;20192;-79
2023/01/08 03:46:21;;;;;;;2.60;2.50;;;;;;;4.20;58.17;94918.59;2618167;47;20276;-80
2023/01/08 03:48:51;;;;;;;2.13;1.93;;;;;;;4.24;59.84;94919.53;2617606;47;20164;-80
2023/01/08 03:51:20;;;;;;;2.50;2.40;;;;;;;4.26;58.94;94902.84;2618256;47;20173;-80
2023/01/08 03:53:50;;;;;;;5.20;2.07;;;;;;;4.61;58.86;94899.28;2617937;54;20268;-81
2023/01/08 03:56:19;;;;;;;2.90;2.70;;;;;;;5.83;55.95;94904.00;2618583;47;20172;-80
2023/01/08 03:58:50;;;;;;;1.97;1.87;;;;;;;6.40;53.16;94909.84;2617708;47;20237;-80
2023/01/08 04:01:19;;;;;;;3.20;2.80;;;;;;;7.01;51.97;94891.13;2618064;47;20835;-80
2023/01/08 04:03:48;;;;;;;2.83;2.03;;;;;;;8.03;51.75;94912.84;2617651;54;20161;-80
2023/01/08 04:06:16;;;;;;;4.43;3.27;;;;;;;9.04;48.06;94913.75;2618158;46;20188;-80
2023/01/08 04:08:45;;;;;;;3.80;2.60;;;;;;;9.22;46.39;94855.91;2617705;47;20161;-80
2023/01/08 04:11:13;;;;;;;4.07;3.80;;;;;;;9.97;47.94;94915.44;2618096;54;20161;-79
2023/01/08 04:13:42;;;;;;;5.57;4.67;;;;;;;10.28;46.10;94919.44;2618484;39;20310;-80
2023/01/08 04:16:13;;;;;;;6.33;3.70;;;;;;;10.32;45.32;94896.94;2618030;54;20164;-79
2023/01/08 04:18:42;;;;;;;7.30;3.90;;;;;;;10.31;43.96;94879.22;2617704;47;20715;-79
2023/01/08 04:21:11;;;;;;;2.93;2.73;;;;;;;10.81;46.63;94910.03;2618351;47;20672;-80
2023/01/08 04:23:39;;;;;;;2.80;2.67;;;;;;;7.92;45.35;94908.13;2618054;47;20192;-81
2023/01/08 04:26:09;;;;;;;2.53;2.43;;;;;;;6.48;49.04;94921.50;2618636;54;20176;-80
2023/01/08 04:28:38;;;;;;;2.53;2.03;;;;;;;5.07;52.49;94922.94;2620158;47;20177;-80
2023/01/08 04:31:08;;;;;;;2.40;2.30;;;;;;;4.23;55.71;94897.75;2618941;54;20145;-80
2023/01/08 04:33:39;;;;;;;4.83;3.93;;;;;;;4.03;57.49;94908.47;2618552;46;20793;-80
2023/01/08 04:36:08;;;;;;;8.10;6.30;;;;;;;4.03;58.17;94916.88;2618198;47;20176;-80
2023/01/08 04:38:37;;;;;;;2.47;2.20;;;;;;;3.79;58.31;94904.19;2618599;39;20531;-80
2023/01/08 04:41:07;;;;;;;2.10;2.00;;;;;;;3.17;60.33;94884.91;2618144;39;20575;-79
2023/01/08 04:43:36;;;;;;;1.27;1.27;;;;;;;3.27;59.85;94887.66;2618091;49;20185;-80
2023/01/08 04:46:06;;;;;;;2.50;2.40;;;;;;;3.48;60.26;94907.91;2617999;54;20161;-79
2023/01/08 04:48:35;;;;;;;3.63;2.67;;;;;;;4.58;62.84;94906.84;2618313;47;20260;-79
2023/01/08 04:51:07;;;;;;;3.20;2.17;;;;;;;5.78;56.15;94910.75;2618392;54;20153;-80
2023/01/08 04:53:39;;;;;;;3.27;2.80;;;;;;;7.41;52.93;94922.63;2618521;39;20558;-79
2023/01/08 04:56:10;;;;;;;2.67;2.50;;;;;;;7.88;49.41;94907.91;2620668;47;20157;-81
2023/01/08 04:58:40;;;;;;;4.53;3.03;;;;;;;7.58;48.67;94879.03;2620570;47;20169;-80
2023/01/08 05:01:19;;;;;;;2.83;2.53;;;;;;;8.78;50.35;94897.16;2620457;47;20183;-80
2023/01/08 05:03:48;;;;;;;2.17;2.07;;;;;;;9.68;49.22;94924.19;2618328;47;20172;-80
2023/01/08 05:06:20;;;;;;;3.17;2.87;;;;;;;9.32;43.09;94934.00;2618629;54;20152;-80
2023/01/08 05:08:48;;;;;;;3.07;2.87;;;;;;;6.41;47.40;94928.91;2618390;47;20260;-80
2023/01/08 05:11:17;;;;;;;2.77;2.67;;;;;;;5.36;51.14;94934.41;2618392;47;20160;-80
2023/01/08 05:13:45;;;;;;;3.27;2.03;;;;;;;4.02;55.25;94934.28;2618222;47;20247;-79
2023/01/08 05:16:14;;;;;;;2.63;1.50;;;;;;;4.23;55.66;94934.94;2617980;54;20145;-79
2023/01/08 05:18:43;;;;;;;3.20;2.67;;;;;;;3.87;57.73;94911.00;2617466;54;20188;-79
2023/01/08 05:21:12;;;;;;;3.07;2.57;;;;;;;4.11;57.44;94911.75;2618048;54;20172;-79
2023/01/08 05:23:47;;;;;;;2.13;2.03;;;;;;;3.97;57.18;94924.91;2617620;47;20180;-79
2023/01/08 05:26:18;;;;;;;3.50;2.57;;;;;;;3.96;58.99;94934.66;2618164;47;20224;-79
2023/01/08 05:28:46;;;;;;;2.57;2.47;;;;;;;3.69;58.40;94925.97;2618166;47;20157;-80
2023/01/08 05:31:16;;;;;;;4.20;3.33;;;;;;;3.70;60.38;94933.75;2617852;47;20192;-79
2023/01/08 05:33:45;;;;;;;4.37;2.43;;;;;;;3.79;60.45;94921.72;2617903;54;20203;-79
2023/01/08 05:36:15;;;;;;;3.40;3.20;;;;;;;3.72;59.89;94922.66;2617390;47;20186;-80
2023/01/08 05:38:46;;;;;;;2.43;2.23;;;;;;;3.38;59.94;94912.13;2617241;54;20144;-80
2023/01/08 05:41:15;;;;;;;2.90;2.73;;;;;;;3.43;58.90;94925.78;2617171;47;20172;-80
2023/01/08 05:43:44;;;;;;;2.33;2.17;;;;;;;3.35;59.01;94928.06;2617322;54;20217;-79
2023/01/08 05:46:13;;;;;;;1.53;1.50;;;;;;;3.48;59.91;94926.75;2617306;47;20164;-78
2023/01/08 05:48:42;;;;;;;2.67;2.27;;;;;;;3.14;60.59;94942.13;2617936;52;20173;-79
2023/01/08 05:51:10;;;;;;;3.23;2.73;;;;;;;3.32;61.34;94926.47;2618009;47;20172;-79
2023/01/08 05:53:39;;;;;;;3.63;3.33;;;;;;;3.50;60.39;94932.50;2617000;47;20169;-80
2023/01/08 05:56:12;;;;;;;3.03;2.93;;;;;;;4.38;57.23;94930.88;2617413;47;20770;-80
2023/01/08 05:58:41;;;;;;;6.80;4.47;;;;;;;5.47;55.04;94936.44;2617135;47;20199;-79
2023/01/08 06:01:12;;;;;;;7.57;5.07;;;;;;;4.34;56.10;94868.97;2617308;47;20256;-77
2023/01/08 06:03:41;;;;;;;3.57;3.27;;;;;;;5.65;55.84;94919.88;2618099;31;20791;-80
2023/01/08 06:06:10;;;;;;;5.17;4.67;;;;;;;7.66;55.19;94921.69;2617128;47;20185;-78
2023/01/08 06:08:39;;;;;;;5.97;3.33;;;;;;;8.65;50.14;94933.97;2616903;54;20161;-79
2023/01/08 06:11:12;;;;;;;4.97;4.47;;;;;;;9.32;49.89;94943.19;2617085;47;20566;-79
2023/01/08 06:13:44;;;;;;;4.07;3.63;;;;;;;9.74;48.60;94938.56;2617055;54;20183;-79
2023/01/08 06:16:13;;;;;;;5.20;4.70;;;;;;;8.16;44.46;94917.69;2617061;47;20160;-79
2023/01/08 06:18:42;;;;;;;4.93;4.63;;;;;;;7.71;48.12;94946.63;2617334;54;20160;-80
2023/01/08 06:21:12;;;;;;;4.57;3.67;;;;;;;6.10;50.97;94942.00;2618560;39;20855;-79
2023/01/08 06:23:41;;;;;;;3.80;3.70;;;;;;;7.38;54.69;94944.31;2618383;47;20153;-79
2023/01/08 06:26:12;;;;;;;4.57;4.27;;;;;;;8.79;52.38;94940.97;2618271;54;20152;-78
2023/01/08 06:28:41;;;;;;;4.13;3.20;;;;;;;9.14;45.51;94929.06;2618389;47;20164;-79
2023/01/08 06:31:10;;;;;;;3.67;3.47;;;;;;;7.54;48.04;94938.75;2618245;46;20157;-78
2023/01/08 06:33:39;;;;;;;5.10;4.20;;;;;;;8.16;51.01;94934.59;2618455;54;20176;-79
2023/01/08 06:36:08;;;;;;;4.27;3.90;;;;;;;9.06;47.00;94930.81;2618053;47;20172;-79
2023/01/08 06:38:38;;;;;;;5.37;4.97;;;;;;;9.48;44.47;94943.88;2618451;54;20192;-79
2023/01/08 06:41:08;;;;;;;6.60;4.70;;;;;;;7.83;46.65;94924.63;2618486;39;20630;-79
2023/01/08 06:43:40;;;;;;;4.47;4.13;;;;;;;8.25;49.83;94956.19;2618059;54;20213;-80
2023/01/08 06:46:11;;;;;;;6.00;5.47;;;;;;;9.30;47.71;94965.72;2618625;51;20168;-80
2023/01/08 06:48:40;;;;;;;14.43;7.97;;;;;;;8.62;46.92;94964.22;2618279;47;20156;-80
2023/01/08 06:51:09;;;;;;;4.50;4.17;;;;;;;7.22;49.41;94949.19;2618810;47;20172;-79
2023/01/08 06:53:37;;;;;;;7.97;4.20;;;;;;;7.17;50.55;94938.34;2619179;39;20371;-79
2023/01/08 06:56:09;;;;;;;6.80;5.83;;;;;;;6.50;52.82;94977.16;2618545;47;20207;-79
2023/01/08 06:58:41;;;;;;;6.70;4.57;;;;;;;5.70;55.19;94927.19;2618502;47;20167;-80
2023/01/08 07:01:15;;;;;;;6.17;5.80;;;;;;;5.80;56.03;94958.66;2619122;39;20584;-79
2023/01/08 07:03:44;;;;;;;7.63;6.03;;;;;;;5.84;55.40;94947.63;2618179;47;20165;-81
2023/01/08 07:06:17;;;;;;;10.07;5.73;;;;;;;5.78;57.62;94966.22;2618291;46;20184;-80
2023/01/08 07:08:45;;;;;;;8.47;5.73;;;;;;;6.40;56.18;94964.03;2618690;54;20171;-79
2023/01/08 07:11:15;;;;;;;6.37;5.80;;;;;;;6.68;54.23;94972.50;2619648;47;20195;-81
2023/01/08 07:13:46;;;;;;;5.97;5.30;;;;;;;5.14;56.80;94872.13;2618061;47;20176;-79
2023/01/08 07:16:16;;;;;;;4.67;4.20;;;;;;;6.72;56.84;94979.03;2618614;54;20153;-79
2023/01/08 07:18:45;;;;;;;7.63;6.33;;;;;;;7.29;53.99;94967.09;2618922;39;20605;-79
2023/01/08 07:21:14;;;;;;;11.13;6.87;;;;;;;8.33;51.09;94984.81;2618438;54;20157;-79
2023/01/08 07:23:44;;;;;;;7.47;5.63;;;;;;;9.68;50.10;94985.69;2618921;47;20181;-79
2023/01/08 07:26:13;;;;;;;5.43;4.93;;;;;;;10.33;48.36;94984.06;2618773;54;20149;-79
2023/01/08 07:28:41;;;;;;;4.80;4.50;;;;;;;10.72;46.85;94954.34;2618355;46;20188;-81
2023/01/08 07:31:12;;;;;;;7.40;6.70;;;;;;;10.26;45.72;94971.03;2617395;47;20160;-81
2023/01/08 07:33:41;;;;;;;7.17;5.43;;;;;;;10.95;45.93;94989.88;2617916;47;20874;-80
2023/01/08 07:36:11;;;;;;;12.10;5.63;;;;;;;11.38;44.59;94978.66;2617292;47;20165;-80
2023/01/08 07:38:40;;;;;;;7.70;6.97;;;;;;;11.63;42.96;94977.34;2617903;47;20207;-79
2023/01/08 07:41:08;;;;;;;6.63;5.73;;;;;;;11.73;43.36;94969.19;2617219;47;20169;-79
2023/01/08 07:43:37;;;;;;;6.30;5.67;;;;;;;12.28;42.51;94985.19;2617444;47;20196;-80
2023/01/08 07:46:06;;;;;;;6.37;5.73;;;;;;;12.47;43.05;94983.59;2617875;47;20260;-79
2023/01/08 07:48:37;;;;;;;9.07;7.43;;;;;;;12.04;41.11;94970.91;2617868;47;20173;-80
2023/01/08 07:51:08;;;;;;;9.90;6.53;;;;;;;11.28;42.93;94995.31;2617937;46;20195;-79
2023/01/08 07:53:38;;;;;;;8.53;7.63;;;;;;;9.67;45.19;94981.41;2618626;39;20634;-80
2023/01/08 07:56:09;;;;;;;9.03;7.07;;;;;;;8.17;49.69;94989.66;2618525;54;20149;-80
2023/01/08 07:58:38;;;;;;;11.30;6.90;;;;;;;8.58;51.56;94989.47;2618721;54;20284;-79
2023/01/08 08:01:11;;;;;;;10.47;7.43;;;;;;;8.49;50.35;94987.63;2618027;47;20177;-80
2023/01/08 08:03:43;;;;;;;10.03;8.20;;;;;;;9.18;49.08;94977.25;2618296;47;20156;-80
2023/01/08 08:06:12;;;;;;;6.97;5.70;;;;;;;9.56;49.49;94974.59;2616793;54;20196;-80
2023/01/08 08:08:41;;;;;;;6.50;5.93;;;;;;;9.90;45.62;94961.84;2617418;47;20668;-79
2023/01/08 08:11:10;;;;;;;5.20;4.80;;;;;;;10.30;47.55;94991.03;2617567;47;20173;-79
2023/01/08 08:13:43;;;;;;;5.00;4.47;;;;;;;10.14;46.30;94981.88;2617216;47;20176;-81
2023/01/08 08:16:12;;;;;;;6.87;6.27;;;;;;;10.02;46.51;94994.81;2617644;47;20165;-80
2023/01/08 08:18:44;;;;;;;6.73;5.20;;;;;;;10.33;45.80;94991.84;2617654;47;20191;-79
2023/01/08 08:21:13;;;;;;;6.40;5.83;;;;;;;10.45;44.51;94983.06;2616665;47;20300;-81
2023/01/08 08:23:42;;;;;;;7.17;4.90;;;;;;;10.48;47.11;94953.47;2617699;46;20164;-80
2023/01/08 08:26:11;;;;;;;5.80;5.20;;;;;;;9.37;46.45;94981.59;2617031;47;20172;-80
2023/01/08 08:28:39;;;;;;;6.27;5.77;;;;;;;8.84;51.08;94976.50;2616131;47;20280;-80
2023/01/08 08:31:08;;;;;;;9.33;6.00;;;;;;;8.61;48.80;94993.09;2619217;39;20601;-80
2023/01/08 08:33:37;;;;;;;7.93;5.13;;;;;;;9.19;47.52;94989.28;2617504;54;20174;-80
2023/01/08 08:36:09;;;;;;;4.83;4.53;;;;;;;9.01;48.23;94991.34;2616989;47;20185;-80
2023/01/08 08:38:38;;;;;;;5.30;4.83;;;;;;;8.84;47.90;94995.56;2617601;47;20207;-80
2023/01/08 08:41:07;;;;;;;7.50;6.20;;;;;;;9.66;47.05;94991.97;2616531;54;20397;-80
2023/01/08 08:43:36;;;;;;;5.70;5.20;;;;;;;10.71;46.18;94989.00;2616945;47;20279;-80
2023/01/08 08:46:05;;;;;;;4.90;4.50;;;;;;;11.08;44.52;94993.88;2617012;47;20164;-81
2023/01/08 08:48:33;;;;;;;4.03;3.50;;;;;;;10.30;44.49;94996.69;2617947;47;20703;-82
2023/01/08 08:51:02;;;;;;;5.23;3.20;;;;;;;11.45;43.52;94990.94;2617970;39;20552;-80
2023/01/08 08:53:33;;;;;;;3.37;3.07;;;;;;;12.08;43.14;94985.25;2618056;54;20223;-80
2023/01/08 08:56:02;;;;;;;7.73;4.17;;;;;;;12.43;42.10;94986.34;2617213;47;20172;-79
2023/01/08 08:58:34;;;;;;;4.93;4.43;;;;;;;12.49;40.91;94989.34;2616444;47;20173;-79
2023/01/08 09:01:04;;;;;;;7.30;3.57;;;;;;;12.70;40.40;94991.41;2616177;47;21452;-80
2023/01/08 09:03:36;;;;;;;3.73;3.43;;;;;;;12.85;41.34;94986.16;2616968;39;20490;-80
2023/01/08 09:06:05;;;;;;;3.67;3.40;;;;;;;12.22;40.51;94981.41;2617076;47;20157;-80
2023/01/08 09:08:38;;;;;;;6.10;3.73;;;;;;;12.31;40.28;94988.78;2616118;47;20172;-80
2023/01/08 09:11:08;;;;;;;4.13;3.20;;;;;;;12.51;43.60;94966.69;2616724;54;20181;-79
2023/01/08 09:13:38;;;;;;;3.50;3.20;;;;;;;12.80;41.23;94983.19;2616683;54;20163;-81
2023/01/08 09:16:07;;;;;;;5.70;2.73;;;;;;;12.74;39.65;94980.16;2616856;54;20165;-80
2023/01/08 09:18:36;;;;;;;5.90;4.27;;;;;;;12.69;41.31;94921.03;2617244;54;20152;-79
2023/01/08 09:21:11;;;;;;;9.90;4.07;;;;;;;12.96;39.86;94943.13;2618351;54;20144;-81
2023/01/08 09:23:46;;;;;;;5.70;4.43;;;;;;;11.22;40.44;94884.53;2618299;39;20546;-80
2023/01/08 09:26:15;;;;;;;5.20;4.57;;;;;;;9.31;46.26;94953.06;2618060;47;20172;-80
2023/01/08 09:28:43;;;;;;;4.30;3.90;;;;;;;10.60;45.92;94948.25;2619016;47;20164;-80
2023/01/08 09:31:12;;;;;;;4.67;3.67;;;;;;;10.61;43.43;94972.34;2618614;47;20185;-80
2023/01/08 09:33:41;;;;;;;3.90;3.60;;;;;;;11.03;44.01;94959.72;2619562;47;20156;-80
2023/01/08 09:36:12;;;;;;;4.67;4.37;;;;;;;10.89;43.42;94935.81;2621603;39;20487;-84
2023/01/08 09:38:44;;;;;;;4.10;3.80;;;;;;;11.46;43.16;94946.28;2624404;47;20165;-84
2023/01/08 09:41:19;;;;;;;4.10;3.80;;;;;;;11.60;42.12;94949.59;2620673;47;20216;-85
2023/01/08 09:43:51;;;;;;;3.57;3.37;;;;;;;12.42;48.65;94933.75;2619747;47;20195;-81
2023/01/08 09:46:23;;;;;;;4.10;3.87;;;;;;;12.94;44.45;94939.50;2621898;39;20253;-86
2023/01/08 09:48:54;;;;;;;5.40;5.00;;;;;;;11.76;41.72;94865.00;2620655;47;20214;-81
2023/01/08 09:51:23;;;;;;;10.43;3.30;;;;;;;12.43;42.96;94921.00;2619003;54;20148;-83
2023/01/08 09:53:57;;;;;;;5.63;5.03;;;;;;;13.26;43.02;94931.84;2619650;47;20172;-79
2023/01/08 09:59:03;;;;;;;3.47;3.27;;;;;;;11.65;41.32;94903.66;2618376;54;20578;-82
2023/01/08 10:01:40;;;;;;;5.30;4.00;;;;;;;11.39;41.66;94906.38;2618124;47;20164;-84
2023/01/08 10:04:17;;;;;;;3.13;2.93;;;;;;;12.37;43.32;94883.88;2618844;47;20172;-83
2023/01/08 10:06:52;;;;;;;5.43;4.33;;;;;;;12.45;40.29;94901.16;2618136;54;20194;-82
2023/01/08 10:09:28;;;;;;;8.70;5.27;;;;;;;11.91;45.44;94888.88;2617764;54;20168;-82
2023/01/08 10:12:01;;;;;;;5.47;4.57;;;;;;;12.54;43.37;94902.84;2618087;47;20176;-82
2023/01/08 10:14:33;;;;;;;10.60;5.80;;;;;;;10.93;42.62;94887.81;2618226;47;20164;-81
2023/01/08 10:17:06;;;;;;;6.27;5.17;;;;;;;10.31;44.80;94896.22;2618365;46;20288;-81
2023/01/08 10:19:35;;;;;;;7.17;4.30;;;;;;;10.17;45.92;94892.09;2618410;47;20176;-81
2023/01/08 10:22:04;;;;;;;4.90;4.37;;;;;;;11.27;43.73;94886.13;2618157;54;20160;-79
2023/01/08 10:24:38;;;;;;;6.10;5.10;;;;;;;12.09;45.20;94856.09;2618284;47;20211;-80
2023/01/08 10:27:09;;;;;;;9.10;4.73;;;;;;;12.67;47.78;94878.34;2619324;46;20197;-81
2023/01/08 10:29:38;;;;;;;5.93;4.57;;;;;;;12.77;42.55;94879.34;2618794;47;20195;-81
2023/01/08 10:32:11;;;;;;;5.13;4.67;;;;;;;13.01;45.15;94872.88;2618430;47;20296;-80
2023/01/08 10:34:46;;;;;;;5.97;5.37;;;;;;;13.25;40.05;94869.97;2618643;54;20187;-81
2023/01/08 10:37:28;;;;;;;6.57;6.00;;;;;;;13.15;42.80;94873.28;2618486;47;20218;-83
2023/01/08 10:40:06;;;;;;;7.57;5.87;;;;;;;13.34;41.83;94846.75;2619172;47;20251;-84
2023/01/08 10:42:37;;;;;;;9.30;5.50;;;;;;;13.37;40.70;94856.78;2618376;54;20225;-81
2023/01/08 10:45:12;;;;;;;23.63;5.47;;;;;;;13.14;42.27;94849.03;2618231;54;20164;-80
2023/01/08 10:47:41;;;;;;;8.80;5.83;;;;;;;13.27;43.64;94836.59;2618144;47;20169;-81
2023/01/08 10:50:22;;;;;;;8.80;5.77;;;;;;;13.34;40.17;94814.72;2618470;47;20219;-82
2023/01/08 10:52:56;;;;;;;6.23;5.33;;;;;;;13.25;42.07;94815.94;2618852;54;20184;-80
2023/01/08 10:55:30;;;;;;;9.33;7.33;;;;;;;13.23;39.85;94830.09;2615624;47;20168;-80
2023/01/08 10:58:01;;;;;;;7.30;5.90;;;;;;;13.18;40.13;94842.75;2616071;54;20210;-82
2023/01/08 11:00:31;;;;;;;6.17;5.53;;;;;;;12.79;40.51;94845.31;2618519;54;20183;-82
2023/01/08 11:03:02;;;;;;;6.57;5.23;;;;;;;13.05;43.35;94802.63;2619782;39;20594;-82
2023/01/08 11:05:33;;;;;;;9.40;4.30;;;;;;;12.97;40.39;94833.69;2619122;54;20157;-80
2023/01/08 11:08:04;;;;;;;6.27;5.70;;;;;;;13.18;44.24;94823.59;2604409;54;20723;-80
2023/01/08 11:10:38;;;;;;;6.60;5.83;;;;;;;12.82;40.32;94804.19;2618182;54;20210;-81
2023/01/08 11:13:09;;;;;;;5.47;4.97;;;;;;;13.13;42.92;94822.72;2620154;46;20181;-80
2023/01/08 11:15:40;;;;;;;6.37;5.53;;;;;;;13.39;42.31;94824.81;2615434;54;20168;-80
2023/01/08 11:18:17;;;;;;;8.00;6.80;;;;;;;13.55;43.61;94813.06;2615156;47;20172;-80
2023/01/08 11:20:47;;;;;;;5.53;4.70;;;;;;;13.81;40.96;94816.53;2615818;54;20648;-80
2023/01/08 11:23:20;;;;;;;7.43;6.07;;;;;;;14.07;41.14;94819.97;2614966;47;20172;-82
2023/01/08 11:26:08;;;;;;;6.13;5.53;;;;;;;13.91;38.69;94816.06;2613498;47;20681;-81
2023/01/08 11:28:49;;;;;;;10.83;6.10;;;;;;;13.43;39.72;94796.44;2614609;54;20180;-82
2023/01/08 11:31:25;;;;;;;7.30;6.10;;;;;;;13.54;38.88;94798.13;2613701;47;20160;-80
2023/01/08 11:34:00;;;;;;;8.83;6.57;;;;;;;13.56;40.71;94781.09;2613794;54;20161;-81
2023/01/08 11:36:35;;;;;;;10.50;6.50;;;;;;;14.06;43.87;94809.28;2615593;47;20165;-81
2023/01/08 11:39:04;;;;;;;5.70;5.20;;;;;;;13.65;40.04;94796.25;2617740;46;20210;-81
2023/01/08 11:42:03;;;;;;;13.70;7.63;;;;;;;13.82;41.44;94786.66;2617768;47;20161;-80
2023/01/08 11:44:44;;;;;;;10.63;7.80;;;;;;;14.29;44.28;94805.47;2619378;54;20215;-80
2023/01/08 11:47:20;;;;;;;10.83;9.03;;;;;;;13.51;43.43;94797.38;2617467;39;21005;-81
2023/01/08 11:50:07;;;;;;;11.47;7.77;;;;;;;12.77;39.93;94770.63;2617617;47;20421;-80
2023/01/08 11:52:46;;;;;;;8.53;5.03;;;;;;;13.20;42.40;94755.38;2618376;54;20153;-81
2023/01/08 11:55:31;;;;;;;17.67;9.57;;;;;;;13.46;41.01;94789.41;2617961;54;20168;-81
2023/01/08 11:58:21;;;;;;;16.87;6.87;;;;;;;13.30;39.81;94766.28;2624160;54;20141;-83
2023/01/08 12:03:29;;;;;;;6.93;6.10;;;;;;;13.62;39.24;94791.91;2628981;54;20144;-86